Time;durP1;ratioP1;P1;durP2;ratioP2;P2;SDS_P1;SDS_P2;PMS_P1;PMS_P2;Temp;Humidity;BMP_temperature;BMP_pressure;BME280_temperature;BME280_humidity;BME280_pressure;Samples;Min_cycle;Max_cycle;Signal;HPM_P1;HPM_P2
2022/12/19 00:00:15;;;;;;;19.02;11.07;;;23.00;66.70;;;;;;5011320;28;20200;-43
2022/12/19 00:02:46;;;;;;;18.73;11.13;;;23.10;67.40;;;;;;5010638;28;20207;-40
2022/12/19 00:05:17;;;;;;;16.02;9.95;;;23.20;67.90;;;;;;5009507;28;20560;-40
2022/12/19 00:07:52;;;;;;;15.00;9.20;;;23.30;67.90;;;;;;4992121;28;20672;-41
2022/12/19 00:10:23;;;;;;;12.02;8.10;;;23.30;67.70;;;;;;4991079;28;20219;-43
2022/12/19 00:12:54;;;;;;;11.32;8.50;;;23.40;66.70;;;;;;4991310;28;20197;-43
2022/12/19 00:15:26;;;;;;;10.80;8.43;;;23.50;64.90;;;;;;5000032;28;20232;-39
2022/12/19 00:17:57;;;;;;;8.52;6.93;;;23.50;63.50;;;;;;5010856;28;20223;-43
2022/12/19 00:20:27;;;;;;;10.80;7.07;;;23.50;63.90;;;;;;5010963;28;20220;-42
2022/12/19 00:22:59;;;;;;;7.68;6.25;;;23.50;62.40;;;;;;5011176;28;20223;-42
2022/12/19 00:25:29;;;;;;;8.70;6.60;;;23.50;61.90;;;;;;5010721;28;20577;-43
2022/12/19 00:28:00;;;;;;;8.50;6.63;;;23.50;61.30;;;;;;5010905;28;20221;-39
2022/12/19 00:30:36;;;;;;;8.75;6.47;;;23.50;61.20;;;;;;5010530;28;20231;-42
2022/12/19 00:33:07;;;;;;;8.40;6.13;;;23.50;60.90;;;;;;5013114;28;20203;-42
2022/12/19 00:35:37;;;;;;;8.77;7.15;;;23.50;60.70;;;;;;5013153;28;20216;-42
2022/12/19 00:38:08;;;;;;;8.38;5.63;;;23.50;60.50;;;;;;5010650;28;20221;-38
2022/12/19 00:40:39;;;;;;;7.75;6.07;;;23.50;60.30;;;;;;5010762;28;20652;-41
2022/12/19 00:43:09;;;;;;;8.63;5.70;;;23.50;60.10;;;;;;5010970;28;20208;-38
2022/12/19 00:45:43;;;;;;;7.32;6.43;;;23.40;60.00;;;;;;5010480;28;20207;-38
2022/12/19 00:48:13;;;;;;;7.53;5.90;;;23.40;59.70;;;;;;5010450;28;20221;-40
2022/12/19 00:50:44;;;;;;;7.75;6.75;;;23.40;60.60;;;;;;5010843;28;20564;-42
2022/12/19 00:53:15;;;;;;;8.10;7.25;;;23.40;59.20;;;;;;5010521;28;20219;-44
2022/12/19 00:55:46;;;;;;;7.97;6.53;;;23.40;59.10;;;;;;5010441;28;20224;-42
2022/12/19 00:58:16;;;;;;;8.35;7.55;;;23.40;59.30;;;;;;5010164;28;20703;-44
2022/12/19 01:00:49;;;;;;;9.63;8.73;;;23.40;58.30;;;;;;5010452;28;20679;-40
2022/12/19 01:03:20;;;;;;;10.30;9.23;;;23.40;57.50;;;;;;5010274;28;20681;-41
2022/12/19 01:05:52;;;;;;;8.98;7.70;;;23.40;57.20;;;;;;5010253;28;20204;-43
2022/12/19 01:08:22;;;;;;;9.05;8.15;;;23.40;56.90;;;;;;5013898;28;20212;-41
2022/12/19 01:10:53;;;;;;;9.93;8.93;;;23.40;56.60;;;;;;5014263;28;20223;-41
2022/12/19 01:13:23;;;;;;;8.50;7.50;;;23.30;56.40;;;;;;5013854;28;20512;-42
2022/12/19 01:15:56;;;;;;;7.32;6.63;;;23.30;56.20;;;;;;5014154;28;20239;-43
2022/12/19 01:18:27;;;;;;;7.40;6.70;;;23.30;55.90;;;;;;5014279;28;20719;-43
2022/12/19 01:21:00;;;;;;;7.30;6.13;;;23.30;55.80;;;;;;5014414;28;20201;-42
2022/12/19 01:23:31;;;;;;;8.05;6.43;;;23.30;55.60;;;;;;5013842;28;20209;-41
2022/12/19 01:26:02;;;;;;;6.03;5.53;;;23.20;55.60;;;;;;5013729;28;20211;-41
2022/12/19 01:28:33;;;;;;;5.97;5.40;;;23.20;55.50;;;;;;5013452;28;20220;-43
2022/12/19 01:31:07;;;;;;;5.63;4.80;;;23.10;55.40;;;;;;5013941;28;20291;-40
2022/12/19 01:33:38;;;;;;;5.20;4.70;;;23.10;55.40;;;;;;5013283;28;20200;-40
2022/12/19 01:36:10;;;;;;;4.20;3.80;;;23.10;55.40;;;;;;5013162;28;20652;-40
2022/12/19 01:38:40;;;;;;;5.95;4.63;;;23.10;55.40;;;;;;5013347;28;20239;-41
2022/12/19 01:41:12;;;;;;;3.83;3.40;;;23.00;55.30;;;;;;5013623;28;20582;-42
2022/12/19 01:43:57;;;;;;;3.00;2.70;;;23.00;55.30;;;;;;5013292;28;20197;-40
2022/12/19 01:46:34;;;;;;;3.00;2.63;;;22.90;55.40;;;;;;4995968;28;20204;-39
2022/12/19 01:49:24;;;;;;;3.35;2.90;;;22.90;55.30;;;;;;4994273;28;20224;-42
2022/12/19 01:51:58;;;;;;;4.13;3.20;;;22.90;55.30;;;;;;4996891;28;20204;-40
2022/12/19 01:54:31;;;;;;;3.35;2.83;;;22.80;55.20;;;;;;5013128;28;20594;-39
2022/12/19 01:57:03;;;;;;;2.25;1.92;;;22.80;55.10;;;;;;5013363;28;20227;-40
2022/12/19 01:59:37;;;;;;;3.85;1.80;;;22.80;55.20;;;;;;5013363;28;20566;-41
2022/12/19 02:02:13;;;;;;;2.08;1.60;;;22.70;55.20;;;;;;5013743;28;20205;-45
2022/12/19 02:04:44;;;;;;;1.45;1.27;;;22.70;55.30;;;;;;5013240;28;20207;-44
2022/12/19 02:07:16;;;;;;;2.65;1.20;;;22.70;55.30;;;;;;5013294;28;20734;-42
2022/12/19 02:09:48;;;;;;;2.50;1.10;;;22.70;55.30;;;;;;5012876;28;20207;-44
2022/12/19 02:12:19;;;;;;;0.93;0.80;;;22.60;55.40;;;;;;5013115;28;20212;-43
2022/12/19 02:14:49;;;;;;;2.80;0.90;;;22.60;55.50;;;;;;5004778;28;20221;-44
2022/12/19 02:17:31;;;;;;;1.13;0.60;;;22.60;55.60;;;;;;5000823;28;20227;-45
2022/12/19 02:20:36;;;;;;;1.33;0.77;;;22.50;55.60;;;;;;4993443;28;20205;-43
2022/12/19 02:23:31;;;;;;;0.88;0.57;;;22.50;55.70;;;;;;5008898;28;20214;-44
2022/12/19 02:26:27;;;;;;;0.63;0.45;;;22.50;55.60;;;;;;5013240;28;20204;-40
2022/12/19 02:29:16;;;;;;;0.80;0.40;;;22.50;55.70;;;;;;5012650;28;20724;-40
2022/12/19 02:31:52;;;;;;;1.10;0.55;;;22.40;55.80;;;;;;5012375;28;20208;-41
2022/12/19 02:34:31;;;;;;;0.50;0.40;;;22.40;55.80;;;;;;5012758;28;20196;-42
2022/12/19 02:37:07;;;;;;;1.23;0.57;;;22.40;55.90;;;;;;5013080;28;20220;-42
2022/12/19 02:39:44;;;;;;;1.67;0.50;;;22.40;56.00;;;;;;5025713;28;20192;-41
2022/12/19 02:42:19;;;;;;;2.55;0.70;;;22.40;56.00;;;;;;5026025;28;20246;-40
2022/12/19 02:44:53;;;;;;;1.42;0.70;;;22.40;56.10;;;;;;5012324;28;20208;-43
2022/12/19 02:47:26;;;;;;;0.85;0.30;;;22.40;56.00;;;;;;5012266;28;20225;-40
2022/12/19 02:49:56;;;;;;;1.33;0.40;;;22.30;55.90;;;;;;5012683;28;20683;-43
2022/12/19 02:52:50;;;;;;;0.60;0.40;;;22.30;55.90;;;;;;5012377;28;20208;-44
2022/12/19 02:55:24;;;;;;;0.90;0.40;;;22.30;55.90;;;;;;5012275;28;20291;-40
2022/12/19 02:58:13;;;;;;;1.08;0.50;;;22.30;55.90;;;;;;5012724;28;20224;-41
2022/12/19 03:00:53;;;;;;;1.05;0.40;;;22.30;56.00;;;;;;5012757;28;20204;-43
2022/12/19 03:03:35;;;;;;;0.75;0.43;;;22.30;56.00;;;;;;5011946;28;20205;-41
2022/12/19 03:06:13;;;;;;;0.80;0.60;;;22.30;56.10;;;;;;5011524;28;20205;-44
2022/12/19 03:08:49;;;;;;;0.50;0.40;;;22.30;56.10;;;;;;5011617;28;20688;-43
2022/12/19 03:11:20;;;;;;;1.92;0.50;;;22.30;56.10;;;;;;5011956;28;20211;-41
2022/12/19 03:13:55;;;;;;;1.10;0.60;;;22.30;56.10;;;;;;4992365;28;20210;-43
2022/12/19 03:16:26;;;;;;;0.60;0.60;;;22.30;56.20;;;;;;4993335;28;20591;-40
2022/12/19 03:19:01;;;;;;;1.00;0.45;;;22.20;56.00;;;;;;5011922;28;20217;-43
2022/12/19 03:21:36;;;;;;;1.05;0.60;;;22.20;56.00;;;;;;5012007;28;20192;-42
2022/12/19 03:24:08;;;;;;;0.70;0.38;;;22.20;56.00;;;;;;5008433;28;20213;-40
2022/12/19 03:26:43;;;;;;;1.45;0.57;;;22.20;56.00;;;;;;5011873;28;20653;-39
2022/12/19 03:29:20;;;;;;;1.58;0.60;;;22.20;56.00;;;;;;5011041;28;20258;-42
2022/12/19 03:31:51;;;;;;;1.02;0.50;;;22.20;56.00;;;;;;5011123;28;20197;-42
2022/12/19 03:34:28;;;;;;;1.27;0.52;;;22.20;56.10;;;;;;5011634;28;20691;-41
2022/12/19 03:37:02;;;;;;;0.57;0.43;;;22.20;56.20;;;;;;5011143;28;20223;-42
2022/12/19 03:39:34;;;;;;;1.00;0.40;;;22.20;56.10;;;;;;5011704;28;20250;-43
2022/12/19 03:44:57;;;;;;;1.70;0.70;;;22.20;56.20;;;;;;5011296;28;20331;-40
2022/12/19 03:47:33;;;;;;;0.85;0.57;;;22.20;56.20;;;;;;5011371;28;20212;-45
2022/12/19 03:50:06;;;;;;;3.40;0.77;;;22.20;56.20;;;;;;5011832;28;20212;-44
2022/12/19 03:52:42;;;;;;;1.38;0.50;;;22.20;56.20;;;;;;5011516;28;20227;-42
2022/12/19 03:55:18;;;;;;;2.05;0.60;;;22.20;56.20;;;;;;5010936;28;20864;-42
2022/12/19 03:57:54;;;;;;;2.20;0.70;;;22.20;56.10;;;;;;5010864;28;20689;-38
2022/12/19 04:00:25;;;;;;;1.20;0.60;;;22.20;56.10;;;;;;5011916;28;20200;-39
2022/12/19 04:02:59;;;;;;;1.95;0.60;;;22.20;56.10;;;;;;5011469;28;20204;-41
2022/12/19 04:05:32;;;;;;;1.55;0.73;;;22.20;56.10;;;;;;5011438;28;20211;-41
2022/12/19 04:08:05;;;;;;;1.83;0.60;;;22.20;56.10;;;;;;5011635;28;20228;-41
2022/12/19 04:10:41;;;;;;;0.63;0.50;;;22.30;56.10;;;;;;5011019;28;20196;-44
2022/12/19 04:13:15;;;;;;;1.45;0.60;;;22.20;56.00;;;;;;4993786;28;20561;-39
2022/12/19 04:15:55;;;;;;;1.30;0.70;;;22.30;56.10;;;;;;4991637;28;20221;-44
2022/12/19 04:18:26;;;;;;;1.77;0.65;;;22.30;56.20;;;;;;4991999;28;20217;-43
2022/12/19 04:21:06;;;;;;;1.45;0.55;;;22.30;56.20;;;;;;4991727;28;20212;-41
2022/12/19 04:23:45;;;;;;;0.98;0.57;;;22.30;56.20;;;;;;5008092;28;20209;-43
2022/12/19 04:26:17;;;;;;;1.00;0.70;;;22.30;56.20;;;;;;5011389;28;20647;-42
2022/12/19 04:28:52;;;;;;;1.45;0.80;;;22.40;56.10;;;;;;5011162;28;20772;-41
2022/12/19 04:31:25;;;;;;;1.60;0.80;;;22.40;56.10;;;;;;5009719;28;20294;-41
2022/12/19 04:33:56;;;;;;;0.60;0.50;;;22.40;56.00;;;;;;5009253;28;20649;-40
2022/12/19 04:36:31;;;;;;;0.85;0.75;;;22.40;55.90;;;;;;5010445;28;20256;-41
2022/12/19 04:39:01;;;;;;;2.58;0.80;;;22.40;56.00;;;;;;5011218;28;20259;-41
2022/12/19 04:41:32;;;;;;;1.85;0.98;;;22.40;55.90;;;;;;5014258;28;20652;-41
2022/12/19 04:44:03;;;;;;;2.13;1.00;;;22.40;55.80;;;;;;5015312;28;20204;-42
2022/12/19 04:46:33;;;;;;;2.47;1.02;;;22.40;55.80;;;;;;5015910;28;20197;-45
2022/12/19 04:49:04;;;;;;;1.00;0.95;;;22.40;55.80;;;;;;5014853;28;20224;-44
2022/12/19 04:51:37;;;;;;;1.80;1.10;;;22.50;55.90;;;;;;5014548;28;20220;-39
2022/12/19 04:54:07;;;;;;;2.25;1.00;;;22.40;55.90;;;;;;5014880;28;20275;-41
2022/12/19 04:56:41;;;;;;;1.42;0.93;;;22.40;55.80;;;;;;5014724;28;20728;-38
2022/12/19 04:59:18;;;;;;;0.85;0.70;;;22.40;55.80;;;;;;5014065;28;20649;-39
2022/12/19 05:01:48;;;;;;;1.13;0.82;;;22.50;55.80;;;;;;5014572;28;20279;-41
2022/12/19 05:04:19;;;;;;;3.03;1.10;;;22.50;55.80;;;;;;5014924;28;20207;-44
2022/12/19 05:06:52;;;;;;;2.25;1.00;;;22.50;55.80;;;;;;5014259;28;20205;-43
2022/12/19 05:09:22;;;;;;;1.30;1.00;;;22.50;55.70;;;;;;5014178;28;20203;-45
2022/12/19 05:11:53;;;;;;;1.20;0.95;;;22.50;55.70;;;;;;5014628;28;20564;-46
2022/12/19 05:14:24;;;;;;;1.50;1.13;;;22.40;55.60;;;;;;5014389;28;20201;-45
2022/12/19 05:16:55;;;;;;;1.35;0.90;;;22.50;55.70;;;;;;5014535;28;20229;-45
2022/12/19 05:19:26;;;;;;;1.40;0.80;;;22.50;55.70;;;;;;5014446;28;20288;-42
2022/12/19 05:21:58;;;;;;;2.40;1.13;;;22.40;55.70;;;;;;5014184;28;20232;-42
2022/12/19 05:24:29;;;;;;;1.05;0.90;;;22.40;55.60;;;;;;5014161;28;20787;-42
2022/12/19 05:27:00;;;;;;;1.30;1.10;;;22.40;55.70;;;;;;5013969;28;20248;-43
2022/12/19 05:29:31;;;;;;;1.52;1.35;;;22.40;55.70;;;;;;5010524;28;20193;-43
2022/12/19 05:32:02;;;;;;;1.30;1.00;;;22.50;55.70;;;;;;5013715;28;20287;-45
2022/12/19 05:34:32;;;;;;;1.00;0.95;;;22.40;55.70;;;;;;5013974;28;20236;-41
2022/12/19 05:37:05;;;;;;;1.38;1.15;;;22.40;55.80;;;;;;5014026;28;20232;-44
2022/12/19 05:39:36;;;;;;;2.28;1.20;;;22.40;55.70;;;;;;5013969;28;20212;-41
2022/12/19 05:42:06;;;;;;;1.05;0.90;;;22.40;55.70;;;;;;5013958;28;20213;-40
2022/12/19 05:44:37;;;;;;;0.95;0.82;;;22.50;55.70;;;;;;5014037;28;20858;-44
2022/12/19 05:47:08;;;;;;;0.80;0.80;;;22.40;55.70;;;;;;5014122;28;20228;-42
2022/12/19 05:49:39;;;;;;;1.90;0.93;;;22.40;55.70;;;;;;5013829;28;20198;-45
2022/12/19 05:52:11;;;;;;;1.27;0.90;;;22.40;55.70;;;;;;5013405;28;20209;-40
2022/12/19 05:54:42;;;;;;;1.20;1.10;;;22.40;55.70;;;;;;5013578;28;20204;-40
2022/12/19 05:57:13;;;;;;;1.50;0.80;;;22.40;55.70;;;;;;5013402;28;20232;-42
2022/12/19 05:59:43;;;;;;;1.35;0.77;;;22.40;55.70;;;;;;5013502;28;20216;-42
2022/12/19 06:02:14;;;;;;;1.40;0.80;;;22.40;55.80;;;;;;5013269;28;20203;-39
2022/12/19 06:04:45;;;;;;;1.33;1.00;;;22.40;55.80;;;;;;5014426;28;20201;-40
2022/12/19 06:07:17;;;;;;;3.65;1.23;;;22.40;55.80;;;;;;5013088;28;20216;-39
2022/12/19 06:09:48;;;;;;;1.63;0.73;;;22.40;55.80;;;;;;5013372;28;20212;-41
2022/12/19 06:12:19;;;;;;;2.67;0.95;;;22.40;55.80;;;;;;5008835;28;20316;-39
2022/12/19 06:14:49;;;;;;;2.10;0.90;;;22.40;55.80;;;;;;5013337;28;20776;-39
2022/12/19 06:17:20;;;;;;;1.25;0.82;;;22.40;55.80;;;;;;5013289;28;20236;-39
2022/12/19 06:19:51;;;;;;;2.25;0.95;;;22.40;55.80;;;;;;5013301;28;20193;-41
2022/12/19 06:22:23;;;;;;;2.60;1.27;;;22.40;55.80;;;;;;5012911;28;20667;-38
2022/12/19 06:24:54;;;;;;;1.55;0.98;;;22.30;55.70;;;;;;5013134;28;20200;-40
2022/12/19 06:27:25;;;;;;;2.08;0.93;;;22.30;55.70;;;;;;5012971;28;20224;-42
2022/12/19 06:29:56;;;;;;;1.35;1.00;;;22.40;55.80;;;;;;5013012;28;20197;-40
2022/12/19 06:32:26;;;;;;;1.13;0.93;;;22.30;55.80;;;;;;5013110;28;20221;-39
2022/12/19 06:34:58;;;;;;;1.77;1.10;;;22.30;55.80;;;;;;5013005;28;20212;-42
2022/12/19 06:37:30;;;;;;;1.80;1.00;;;22.30;55.80;;;;;;5012747;28;20241;-40
2022/12/19 06:40:01;;;;;;;1.38;0.90;;;22.30;55.80;;;;;;5012921;28;20215;-40
2022/12/19 06:42:30;;;;;;;1.67;1.05;;;22.30;55.80;;;;;;5013209;28;20201;-41
2022/12/19 06:45:01;;;;;;;1.75;0.90;;;22.30;55.80;;;;;;5014019;28;20193;-40
2022/12/19 06:47:32;;;;;;;1.55;1.05;;;22.30;55.80;;;;;;5012737;28;20618;-40
2022/12/19 06:50:03;;;;;;;2.03;1.00;;;22.30;55.90;;;;;;5012388;28;20545;-39
2022/12/19 06:52:35;;;;;;;1.63;1.10;;;22.30;55.90;;;;;;5012029;28;20226;-42
2022/12/19 06:55:06;;;;;;;0.93;0.88;;;22.30;55.80;;;;;;5014926;28;20208;-44
2022/12/19 06:57:44;;;;;;;0.88;0.80;;;22.20;55.80;;;;;;5012224;28;20229;-42
2022/12/19 07:00:15;;;;;;;0.95;0.93;;;22.30;55.90;;;;;;5012183;28;20291;-40
2022/12/19 07:02:50;;;;;;;1.40;0.85;;;22.20;55.80;;;;;;5011811;28;20534;-39
2022/12/19 07:05:21;;;;;;;1.05;0.80;;;22.20;55.80;;;;;;5012327;28;20204;-42
2022/12/19 07:07:54;;;;;;;1.20;0.98;;;22.20;55.80;;;;;;5012458;28;20224;-40
2022/12/19 07:10:25;;;;;;;1.40;0.80;;;22.20;55.90;;;;;;5012224;28;20212;-41
2022/12/19 07:12:55;;;;;;;1.17;1.00;;;22.20;55.80;;;;;;5012520;28;20201;-39
2022/12/19 07:15:27;;;;;;;1.48;0.90;;;22.20;55.90;;;;;;5011536;28;20200;-44
2022/12/19 07:17:57;;;;;;;1.27;0.82;;;22.20;55.80;;;;;;5011496;28;20228;-41
2022/12/19 07:20:29;;;;;;;1.20;0.88;;;22.20;55.90;;;;;;5012008;28;20200;-45
2022/12/19 07:23:03;;;;;;;2.33;0.70;;;22.20;55.90;;;;;;5012107;28;20197;-40
2022/12/19 07:25:34;;;;;;;0.80;0.65;;;22.10;55.90;;;;;;5012308;28;20192;-43
2022/12/19 07:28:05;;;;;;;0.95;0.70;;;22.10;55.90;;;;;;5012187;28;20217;-41
2022/12/19 07:30:36;;;;;;;1.17;0.80;;;22.10;55.80;;;;;;5013561;28;20288;-40
2022/12/19 07:33:06;;;;;;;1.73;0.93;;;22.10;55.90;;;;;;5012342;28;20207;-42
2022/12/19 07:35:37;;;;;;;1.73;0.85;;;22.10;55.90;;;;;;5011806;28;20205;-39
2022/12/19 07:38:10;;;;;;;0.80;0.80;;;22.10;55.90;;;;;;5011733;28;20237;-39
2022/12/19 07:40:41;;;;;;;0.90;0.80;;;22.10;56.00;;;;;;5026517;28;20650;-39
2022/12/19 07:43:11;;;;;;;1.25;0.80;;;22.10;56.00;;;;;;5031332;28;20208;-41
2022/12/19 07:45:42;;;;;;;1.48;0.70;;;22.10;56.00;;;;;;5031172;28;20640;-42
2022/12/19 07:48:13;;;;;;;0.85;0.75;;;22.10;56.00;;;;;;5030874;28;20220;-42
2022/12/19 07:50:45;;;;;;;1.38;0.95;;;22.10;56.60;;;;;;5030882;28;20248;-44
2022/12/19 07:53:17;;;;;;;1.30;1.00;;;22.00;56.00;;;;;;5016758;28;20287;-42
2022/12/19 07:55:51;;;;;;;0.80;0.80;;;22.00;56.00;;;;;;5011008;28;20542;-40
2022/12/19 07:58:22;;;;;;;1.33;0.88;;;22.00;56.00;;;;;;5010829;28;20244;-40
2022/12/19 08:00:57;;;;;;;0.73;0.70;;;22.00;56.10;;;;;;5011528;28;20653;-38
2022/12/19 08:03:29;;;;;;;1.55;0.70;;;22.00;56.10;;;;;;5011840;28;20201;-42
2022/12/19 08:06:03;;;;;;;1.92;0.80;;;22.00;56.00;;;;;;5010932;28;20200;-38
2022/12/19 08:08:36;;;;;;;1.52;0.73;;;22.00;56.10;;;;;;5010658;28;20228;-40
2022/12/19 08:11:11;;;;;;;1.70;0.85;;;22.00;56.10;;;;;;5011677;28;20203;-40
2022/12/19 08:13:42;;;;;;;1.00;0.70;;;22.00;56.10;;;;;;5008344;28;20192;-57
2022/12/19 08:16:13;;;;;;;1.17;0.60;;;21.90;56.10;;;;;;5010530;28;20200;-53
2022/12/19 08:18:43;;;;;;;1.75;0.63;;;22.00;56.60;;;;;;5011295;28;20736;-57
2022/12/19 08:21:14;;;;;;;1.50;0.60;;;21.90;57.10;;;;;;5011225;28;20197;-38
2022/12/19 08:23:47;;;;;;;1.83;0.93;;;21.80;57.40;;;;;;5011167;28;20557;-42
2022/12/19 08:26:23;;;;;;;2.15;1.05;;;21.70;57.60;;;;;;5011033;28;20655;-42
2022/12/19 08:28:55;;;;;;;3.92;1.33;;;21.70;57.80;;;;;;5010984;28;20299;-39
2022/12/19 08:31:26;;;;;;;3.45;1.20;;;21.70;57.80;;;;;;5006837;28;20200;-43
2022/12/19 08:33:58;;;;;;;3.40;1.20;;;21.70;57.90;;;;;;5000497;28;20208;-41
2022/12/19 08:36:29;;;;;;;1.40;1.10;;;21.70;57.90;;;;;;5009771;28;20732;-47
2022/12/19 08:39:02;;;;;;;3.03;1.35;;;21.70;57.90;;;;;;5007782;28;20225;-48
2022/12/19 08:41:32;;;;;;;2.10;1.20;;;21.70;58.00;;;;;;5009610;28;20208;-45
2022/12/19 08:44:03;;;;;;;2.70;1.25;;;21.70;57.90;;;;;;5010059;28;20723;-43
2022/12/19 08:46:34;;;;;;;3.42;1.45;;;21.70;58.00;;;;;;5010130;28;20205;-48
2022/12/19 08:49:04;;;;;;;4.20;1.13;;;21.60;58.00;;;;;;5009460;28;20716;-42
2022/12/19 08:51:35;;;;;;;3.08;1.30;;;21.70;58.00;;;;;;5013364;28;20184;-45
2022/12/19 08:54:08;;;;;;;3.20;1.20;;;21.60;57.90;;;;;;5009507;28;20205;-45
2022/12/19 08:56:38;;;;;;;3.92;1.27;;;21.60;57.80;;;;;;5009060;28;20228;-46
2022/12/19 08:59:09;;;;;;;3.42;1.30;;;21.60;57.80;;;;;;5009742;28;20197;-44
2022/12/19 09:01:40;;;;;;;2.35;1.10;;;21.60;57.70;;;;;;5009102;28;20201;-47
2022/12/19 09:04:10;;;;;;;2.70;1.13;;;21.60;57.60;;;;;;5009897;28;20204;-43
2022/12/19 09:06:41;;;;;;;1.35;1.02;;;21.60;57.60;;;;;;5009724;28;20205;-45
2022/12/19 09:09:14;;;;;;;2.97;1.23;;;21.60;57.60;;;;;;5010270;28;20645;-38
2022/12/19 09:11:45;;;;;;;1.45;1.00;;;21.60;57.50;;;;;;5009758;28;20256;-46
2022/12/19 09:14:15;;;;;;;2.30;1.08;;;21.60;57.50;;;;;;5009539;28;20569;-43
2022/12/19 09:16:46;;;;;;;2.30;0.90;;;21.60;57.50;;;;;;5009513;28;20224;-47
2022/12/19 09:19:17;;;;;;;1.88;1.08;;;21.60;57.40;;;;;;5009842;28;20939;-45
2022/12/19 09:21:48;;;;;;;1.58;0.90;;;21.60;57.40;;;;;;5008998;28;20204;-47
2022/12/19 09:24:21;;;;;;;1.27;0.77;;;21.60;57.50;;;;;;5009359;28;20641;-43
2022/12/19 09:26:51;;;;;;;3.13;0.77;;;21.60;57.50;;;;;;5009555;28;20645;-45
2022/12/19 09:29:22;;;;;;;2.40;0.80;;;21.60;57.50;;;;;;5013410;28;20700;-45
2022/12/19 09:31:53;;;;;;;1.80;0.80;;;21.50;57.40;;;;;;5012981;28;20201;-38
2022/12/19 09:34:24;;;;;;;2.28;1.00;;;21.60;57.40;;;;;;5012281;28;20243;-41
2022/12/19 09:36:55;;;;;;;1.17;0.82;;;21.60;57.50;;;;;;5013209;28;20247;-39
2022/12/19 09:39:27;;;;;;;1.55;0.90;;;21.50;57.30;;;;;;5012657;28;20205;-45
2022/12/19 09:42:21;;;;;;;1.27;0.90;;;21.50;57.30;;;;;;5012790;28;20212;-47
2022/12/19 09:45:21;;;;;;;1.20;0.80;;;21.50;57.20;;;;;;5012526;28;20201;-43
2022/12/19 09:47:56;;;;;;;2.30;0.90;;;21.50;57.20;;;;;;5012749;28;20227;-45
2022/12/19 09:50:44;;;;;;;1.77;0.90;;;21.50;57.10;;;;;;5012750;28;20671;-48
2022/12/19 09:53:22;;;;;;;1.40;0.70;;;21.50;57.00;;;;;;5012922;28;20203;-41
2022/12/19 09:55:55;;;;;;;1.60;0.85;;;21.50;57.10;;;;;;5012521;28;20652;-41
2022/12/19 09:58:39;;;;;;;1.17;0.98;;;21.50;57.10;;;;;;5012579;28;20365;-43
2022/12/19 10:01:20;;;;;;;1.80;0.85;;;21.50;57.20;;;;;;5011905;28;20663;-43
2022/12/19 10:04:01;;;;;;;2.35;0.90;;;21.50;57.80;;;;;;5012158;28;20193;-44
2022/12/19 10:06:32;;;;;;;1.20;0.90;;;21.50;57.20;;;;;;5012707;28;20208;-43
2022/12/19 10:09:03;;;;;;;2.45;0.85;;;21.40;57.20;;;;;;5012553;28;20591;-44
2022/12/19 10:11:59;;;;;;;1.25;0.90;;;21.50;57.20;;;;;;5009188;28;20197;-46
2022/12/19 10:14:43;;;;;;;1.25;0.82;;;21.40;57.20;;;;;;5012726;28;20204;-48
2022/12/19 10:17:26;;;;;;;1.85;0.90;;;21.50;57.10;;;;;;5012271;28;20221;-48
2022/12/19 10:20:17;;;;;;;1.67;0.90;;;21.50;57.10;;;;;;5012666;28;20205;-46
2022/12/19 10:23:01;;;;;;;1.23;0.90;;;21.40;57.00;;;;;;5012516;28;20212;-44
2022/12/19 10:25:48;;;;;;;1.35;0.95;;;21.40;57.00;;;;;;5013039;28;20671;-47
2022/12/19 10:28:43;;;;;;;1.42;0.90;;;21.40;57.00;;;;;;5003752;28;20217;-48
2022/12/19 10:31:20;;;;;;;1.00;0.70;;;21.40;57.00;;;;;;5011996;28;20656;-45
2022/12/19 10:33:57;;;;;;;0.98;0.95;;;21.40;57.10;;;;;;5011300;28;20192;-51
2022/12/19 10:36:28;;;;;;;0.80;0.70;;;21.40;57.10;;;;;;5011651;28;20200;-46
2022/12/19 10:39:05;;;;;;;1.50;0.85;;;21.40;57.10;;;;;;5010447;28;20232;-48
2022/12/19 10:41:36;;;;;;;2.13;0.95;;;21.40;57.10;;;;;;5011733;28;20212;-47
2022/12/19 10:44:11;;;;;;;1.50;0.93;;;21.40;57.10;;;;;;5012076;28;20202;-48
2022/12/19 10:46:44;;;;;;;1.92;0.73;;;21.40;57.00;;;;;;5012342;28;20250;-45
2022/12/19 10:49:17;;;;;;;1.42;0.90;;;21.40;57.00;;;;;;5011693;28;20693;-46
2022/12/19 10:51:59;;;;;;;2.42;1.17;;;21.40;57.60;;;;;;5012167;28;20649;-44
2022/12/19 10:54:42;;;;;;;1.02;0.80;;;21.30;56.90;;;;;;5014431;28;20192;-48
2022/12/19 10:57:26;;;;;;;2.30;1.10;;;21.40;57.00;;;;;;5011079;28;20224;-43
2022/12/19 11:00:03;;;;;;;1.40;0.90;;;21.40;56.90;;;;;;5013813;28;20537;-40
2022/12/19 11:02:42;;;;;;;1.80;1.02;;;21.30;56.90;;;;;;4994424;28;20188;-42
2022/12/19 11:05:26;;;;;;;1.45;1.10;;;21.30;56.90;;;;;;5011933;28;20239;-44
2022/12/19 11:08:05;;;;;;;1.30;1.10;;;21.30;56.90;;;;;;5010887;28;20216;-48
2022/12/19 11:10:41;;;;;;;1.42;1.00;;;21.30;56.90;;;;;;5010946;28;20201;-41
2022/12/19 11:13:25;;;;;;;2.28;1.10;;;21.30;57.60;;;;;;5011318;28;20587;-46
2022/12/19 11:15:59;;;;;;;1.48;1.05;;;21.30;56.90;;;;;;5011244;28;20193;-46
2022/12/19 11:18:38;;;;;;;1.55;1.15;;;21.30;56.90;;;;;;5010766;28;20229;-47
2022/12/19 11:21:17;;;;;;;1.63;1.02;;;21.30;56.90;;;;;;5010725;28;20196;-47
2022/12/19 11:23:54;;;;;;;1.77;1.38;;;21.30;56.90;;;;;;5010255;28;20200;-45
2022/12/19 11:26:37;;;;;;;1.88;1.40;;;21.30;56.80;;;;;;5011853;28;20197;-38
2022/12/19 11:29:20;;;;;;;2.10;1.38;;;21.30;56.80;;;;;;5018171;28;20201;-41
2022/12/19 11:32:00;;;;;;;2.03;1.40;;;21.30;56.90;;;;;;5007444;28;20719;-42
2022/12/19 11:34:34;;;;;;;2.38;1.70;;;21.30;56.80;;;;;;5008259;28;20247;-43
2022/12/19 11:37:16;;;;;;;2.80;1.63;;;21.30;56.80;;;;;;5010366;28;20291;-43
2022/12/19 11:39:49;;;;;;;1.98;1.45;;;21.20;57.40;;;;;;5011141;28;20197;-43
2022/12/19 11:42:25;;;;;;;2.58;1.85;;;21.20;56.80;;;;;;5011538;28;20201;-38
2022/12/19 11:45:02;;;;;;;2.85;2.15;;;21.20;56.80;;;;;;5011679;28;20200;-48
2022/12/19 11:47:41;;;;;;;2.42;2.08;;;21.20;56.90;;;;;;5011054;28;20962;-42
2022/12/19 11:50:18;;;;;;;2.67;1.75;;;21.20;56.80;;;;;;5010912;28;20648;-41
2022/12/19 11:52:54;;;;;;;2.20;1.80;;;21.20;56.80;;;;;;5011261;28;20196;-45
2022/12/19 11:55:27;;;;;;;2.83;1.95;;;21.20;56.80;;;;;;5011490;28;20196;-38
2022/12/19 11:57:59;;;;;;;2.40;1.95;;;21.20;56.80;;;;;;5011471;28;20237;-40
2022/12/19 12:00:31;;;;;;;2.25;1.90;;;21.20;56.70;;;;;;5011133;28;20200;-40
2022/12/19 12:03:31;;;;;;;2.70;2.20;;;21.20;56.80;;;;;;5010880;28;20200;-41
2022/12/19 12:06:09;;;;;;;2.55;2.10;;;21.20;56.70;;;;;;5011190;28;20205;-41
2022/12/19 12:09:03;;;;;;;2.25;1.90;;;21.20;56.60;;;;;;5011646;28;20219;-41
2022/12/19 12:11:43;;;;;;;2.30;1.80;;;21.20;56.60;;;;;;5005179;28;20200;-42
2022/12/19 12:14:24;;;;;;;3.13;2.40;;;21.20;56.60;;;;;;5000110;28;20189;-44
2022/12/19 12:17:23;;;;;;;2.28;1.90;;;21.20;56.60;;;;;;4991124;28;20280;-39
2022/12/19 12:20:11;;;;;;;2.38;1.90;;;21.20;56.70;;;;;;4989592;28;20589;-41
2022/12/19 12:22:58;;;;;;;2.60;2.03;;;21.10;56.60;;;;;;4999944;28;20200;-41
2022/12/19 12:25:42;;;;;;;2.67;1.83;;;21.10;56.70;;;;;;5010605;28;20223;-40
2022/12/19 12:28:51;;;;;;;1.98;1.77;;;21.10;56.70;;;;;;5010698;28;20224;-38
2022/12/19 12:31:41;;;;;;;1.70;1.60;;;21.10;56.70;;;;;;4996238;28;20212;-43
2022/12/19 12:34:49;;;;;;;1.92;1.70;;;21.10;56.60;;;;;;5010886;28;20196;-38
2022/12/19 12:37:36;;;;;;;2.28;1.83;;;21.10;56.60;;;;;;4975610;28;20216;-41
2022/12/19 12:40:21;;;;;;;2.33;1.90;;;21.10;56.60;;;;;;5010340;28;20227;-44
2022/12/19 12:43:04;;;;;;;2.20;1.85;;;21.10;56.50;;;;;;5010914;28;20789;-44
2022/12/19 12:45:39;;;;;;;2.00;1.60;;;21.10;57.10;;;;;;5010469;28;20644;-38
2022/12/19 12:48:24;;;;;;;2.28;1.80;;;21.10;56.60;;;;;;5010754;28;20224;-39
2022/12/19 12:50:56;;;;;;;2.92;1.75;;;21.10;56.60;;;;;;4991276;28;20204;-46
2022/12/19 12:53:34;;;;;;;2.05;1.60;;;21.10;56.60;;;;;;5006212;28;20212;-40
2022/12/19 12:56:07;;;;;;;1.80;1.70;;;21.10;56.70;;;;;;5010033;28;20211;-41
2022/12/19 12:59:21;;;;;;;1.75;1.65;;;21.10;56.60;;;;;;5009708;28;20707;-40
2022/12/19 13:01:57;;;;;;;2.50;1.80;;;21.00;56.60;;;;;;5006648;28;20196;-39
2022/12/19 13:04:31;;;;;;;1.80;1.40;;;21.00;56.60;;;;;;5013919;28;20207;-39
2022/12/19 13:07:20;;;;;;;1.80;1.70;;;21.00;56.60;;;;;;5017132;28;20180;-42
2022/12/19 13:10:06;;;;;;;1.92;1.70;;;21.00;56.50;;;;;;5014320;28;20197;-42
2022/12/19 13:13:02;;;;;;;1.63;1.52;;;21.00;56.50;;;;;;5014372;28;20197;-39
2022/12/19 13:15:37;;;;;;;2.70;1.70;;;21.00;56.40;;;;;;5014233;28;20197;-42
2022/12/19 13:18:40;;;;;;;1.80;1.50;;;21.00;56.40;;;;;;5014120;28;20236;-42
2022/12/19 13:21:12;;;;;;;2.05;1.60;;;21.00;56.40;;;;;;5013841;28;20204;-41
2022/12/19 13:23:51;;;;;;;1.90;1.42;;;21.00;56.40;;;;;;5000187;28;20551;-41
2022/12/19 13:26:51;;;;;;;1.80;1.70;;;21.00;56.40;;;;;;4994547;28;20204;-40
2022/12/19 13:29:36;;;;;;;1.90;1.70;;;21.00;56.50;;;;;;4994490;28;20233;-41